Time;durP1;ratioP1;P1;durP2;ratioP2;P2;SDS_P1;SDS_P2;PMS_P1;PMS_P2;Temp;Humidity;BMP_temperature;BMP_pressure;BME280_temperature;BME280_humidity;BME280_pressure;Samples;Min_cycle;Max_cycle;Signal;HPM_P1;HPM_P2
2023/01/22 00:01:21;;;;;;;35.65;21.10;;;0.10;99.90;;;;;;5026171;28;20064;-80
2023/01/22 00:03:47;;;;;;;39.40;20.40;;;0.10;99.90;;;;;;5010513;28;20166;-80
2023/01/22 00:06:13;;;;;;;34.20;20.05;;;0.20;99.90;;;;;;5029858;28;20500;-81
2023/01/22 00:08:39;;;;;;;40.20;20.33;;;0.20;99.90;;;;;;5009053;28;20077;-80
2023/01/22 00:11:04;;;;;;;39.95;23.27;;;0.20;99.90;;;;;;5011979;28;20029;-80
2023/01/22 00:13:30;;;;;;;34.72;19.63;;;0.20;99.90;;;;;;4995677;28;20080;-80
2023/01/22 00:15:56;;;;;;;40.50;24.08;;;0.20;99.90;;;;;;5024694;28;20174;-80
2023/01/22 00:18:21;;;;;;;40.47;20.98;;;0.20;99.90;;;;;;5010000;28;20037;-80
2023/01/22 00:20:51;;;;;;;38.83;20.00;;;0.20;99.90;;;;;;5023060;28;20039;-81
2023/01/22 00:23:16;;;;;;;35.28;18.58;;;0.30;99.90;;;;;;5041353;28;20637;-81
2023/01/22 00:25:42;;;;;;;39.50;20.33;;;0.40;99.90;;;;;;5022591;28;20029;-81
2023/01/22 00:28:08;;;;;;;33.75;18.63;;;0.30;99.90;;;;;;5021168;28;20048;-81
2023/01/22 00:30:33;;;;;;;37.55;18.70;;;0.30;99.90;;;;;;5009964;28;20202;-81
2023/01/22 00:32:59;;;;;;;31.42;16.75;;;0.40;99.90;;;;;;4995041;28;20115;-81
2023/01/22 00:35:24;;;;;;;34.67;16.40;;;0.40;99.90;;;;;;5011274;28;20439;-81
2023/01/22 00:37:50;;;;;;;34.08;20.77;;;0.40;99.90;;;;;;5008884;28;20030;-81
2023/01/22 00:40:16;;;;;;;34.00;18.58;;;0.40;99.90;;;;;;5020202;28;20026;-81
2023/01/22 00:42:41;;;;;;;34.33;16.27;;;0.30;99.90;;;;;;5010526;28;20108;-81
2023/01/22 00:45:07;;;;;;;34.42;18.77;;;0.40;99.90;;;;;;4992206;28;20048;-81
2023/01/22 00:47:34;;;;;;;33.13;22.88;;;0.30;99.90;;;;;;5010309;28;20036;-81
2023/01/22 00:50:00;;;;;;;37.28;21.30;;;0.30;99.90;;;;;;5010973;28;20492;-81
2023/01/22 00:52:26;;;;;;;36.38;18.30;;;0.30;99.90;;;;;;5001252;28;20083;-81
2023/01/22 00:54:51;;;;;;;35.75;19.35;;;0.30;99.90;;;;;;5008273;28;20045;-81
2023/01/22 00:57:20;;;;;;;33.10;20.23;;;0.30;99.90;;;;;;4993177;28;20037;-81
2023/01/22 00:59:48;;;;;;;33.78;18.88;;;0.30;99.90;;;;;;5008338;28;20096;-81
2023/01/22 01:02:14;;;;;;;33.90;18.10;;;0.40;99.90;;;;;;4993162;28;20259;-81
2023/01/22 01:04:40;;;;;;;34.88;20.80;;;0.40;99.90;;;;;;4990531;28;20025;-80
2023/01/22 01:07:05;;;;;;;35.97;19.33;;;0.30;99.90;;;;;;5006301;28;20037;-81
2023/01/22 01:09:31;;;;;;;33.33;18.33;;;0.30;99.90;;;;;;5007996;28;20045;-81
2023/01/22 01:11:57;;;;;;;30.23;18.25;;;0.30;99.90;;;;;;5004834;28;20024;-81
2023/01/22 01:14:23;;;;;;;36.80;19.48;;;0.40;99.90;;;;;;5009005;28;20025;-80
2023/01/22 01:16:49;;;;;;;33.47;20.08;;;0.30;99.90;;;;;;5012544;28;20449;-81
2023/01/22 01:19:16;;;;;;;32.80;21.20;;;0.30;99.90;;;;;;5007669;28;20472;-81
2023/01/22 01:21:42;;;;;;;34.90;19.77;;;0.30;99.90;;;;;;5023038;28;20021;-82
2023/01/22 01:24:08;;;;;;;34.95;17.65;;;0.30;99.90;;;;;;5005769;28;20440;-80
2023/01/22 01:26:34;;;;;;;32.70;19.25;;;0.30;99.90;;;;;;5008058;28;20113;-81
2023/01/22 01:29:00;;;;;;;27.92;17.15;;;0.30;99.90;;;;;;5008345;28;20037;-82
2023/01/22 01:31:25;;;;;;;31.25;17.60;;;0.30;99.90;;;;;;5008896;28;20035;-80
2023/01/22 01:33:51;;;;;;;30.80;18.77;;;0.40;99.90;;;;;;5016090;28;20048;-81
2023/01/22 01:36:18;;;;;;;35.15;18.30;;;0.40;99.90;;;;;;5010226;28;20029;-81
2023/01/22 01:38:44;;;;;;;30.08;17.60;;;0.30;99.90;;;;;;4991482;28;20037;-81
2023/01/22 01:41:14;;;;;;;32.35;21.00;;;0.30;99.90;;;;;;5007087;28;20036;-81
2023/01/22 01:43:40;;;;;;;28.05;18.38;;;0.30;99.90;;;;;;5001014;28;20539;-81
2023/01/22 01:46:14;;;;;;;31.15;20.95;;;0.30;99.90;;;;;;5022540;28;20041;-82
2023/01/22 01:48:41;;;;;;;30.95;17.25;;;0.30;99.90;;;;;;4992821;28;20025;-81
2023/01/22 01:51:24;;;;;;;30.35;19.80;;;0.30;99.90;;;;;;5022741;28;20593;-81
2023/01/22 01:53:49;;;;;;;31.40;16.70;;;0.30;99.90;;;;;;4991641;28;20413;-81
2023/01/22 01:56:20;;;;;;;34.53;18.88;;;0.30;99.90;;;;;;5020839;28;20109;-80
2023/01/22 01:58:46;;;;;;;29.73;17.23;;;0.30;99.90;;;;;;4994184;28;20491;-81
2023/01/22 02:01:14;;;;;;;30.60;18.73;;;0.30;99.90;;;;;;5007905;28;20033;-81
2023/01/22 02:03:39;;;;;;;31.25;19.33;;;0.40;99.90;;;;;;5006143;28;20094;-81
2023/01/22 02:06:08;;;;;;;28.17;15.90;;;0.40;99.90;;;;;;5004995;28;20033;-81
2023/01/22 02:08:33;;;;;;;32.05;19.58;;;0.30;99.90;;;;;;4990879;28;20037;-81
2023/01/22 02:10:59;;;;;;;29.65;18.45;;;0.40;99.90;;;;;;4994154;28;20385;-81
2023/01/22 02:13:27;;;;;;;31.13;18.25;;;0.30;99.90;;;;;;5009480;28;20033;-80
2023/01/22 02:15:53;;;;;;;28.02;17.48;;;0.30;99.90;;;;;;5020519;28;20029;-81
2023/01/22 02:18:19;;;;;;;31.27;17.85;;;0.30;99.90;;;;;;4990721;28;20476;-81
2023/01/22 02:21:00;;;;;;;28.83;17.58;;;0.40;99.90;;;;;;5008033;28;20379;-81
2023/01/22 02:23:26;;;;;;;28.67;17.70;;;0.30;99.90;;;;;;5012618;28;20091;-81
2023/01/22 02:25:51;;;;;;;28.27;16.77;;;0.30;99.90;;;;;;4991534;28;20084;-81
2023/01/22 02:28:17;;;;;;;32.33;19.92;;;0.30;99.90;;;;;;5025202;28;20522;-81
2023/01/22 02:30:43;;;;;;;33.15;20.48;;;0.30;99.90;;;;;;5021826;28;20552;-81
2023/01/22 02:33:08;;;;;;;31.45;17.98;;;0.30;99.90;;;;;;5009130;28;20068;-81
2023/01/22 02:35:34;;;;;;;31.48;17.25;;;0.30;99.90;;;;;;5005024;28;20032;-81
2023/01/22 02:38:00;;;;;;;28.50;15.45;;;0.30;99.90;;;;;;4968085;28;20424;-82
2023/01/22 02:40:25;;;;;;;32.58;18.50;;;0.20;99.90;;;;;;4993974;28;20502;-81
2023/01/22 02:42:51;;;;;;;31.08;17.50;;;0.30;99.90;;;;;;4991265;28;20033;-81
2023/01/22 02:45:16;;;;;;;29.52;16.40;;;0.30;99.90;;;;;;4988489;28;20044;-82
2023/01/22 02:47:42;;;;;;;29.83;19.38;;;0.30;99.90;;;;;;4991129;28;20030;-82
2023/01/22 02:50:08;;;;;;;31.98;16.58;;;0.30;99.90;;;;;;5005860;28;20033;-81
2023/01/22 02:52:33;;;;;;;24.70;15.32;;;0.20;99.90;;;;;;5005028;28;20034;-81
2023/01/22 02:54:59;;;;;;;29.90;19.52;;;0.30;99.90;;;;;;4992964;28;20452;-81
2023/01/22 02:57:24;;;;;;;29.35;16.20;;;0.30;99.90;;;;;;5008123;28;20033;-82
2023/01/22 02:59:50;;;;;;;30.73;16.88;;;0.20;99.90;;;;;;5006284;28;20029;-81
2023/01/22 03:02:16;;;;;;;30.38;17.90;;;0.20;99.90;;;;;;5009345;28;20623;-81
2023/01/22 03:04:41;;;;;;;28.08;16.70;;;0.20;99.90;;;;;;4993251;28;20057;-82
2023/01/22 03:07:07;;;;;;;30.05;16.58;;;0.10;99.90;;;;;;4994342;28;20040;-81
2023/01/22 03:09:32;;;;;;;30.17;17.50;;;0.20;99.90;;;;;;4994598;28;20036;-80
2023/01/22 03:11:58;;;;;;;29.98;17.05;;;0.20;99.90;;;;;;5007953;28;20033;-81
2023/01/22 03:22:36;;;;;;;24.27;14.68;;;0.20;99.90;;;;;;5026635;28;20396;-86
2023/01/22 03:25:01;;;;;;;22.70;15.25;;;0.20;99.90;;;;;;5022885;28;20029;-86
2023/01/22 03:27:27;;;;;;;27.23;16.77;;;0.20;99.90;;;;;;5026546;28;20056;-86
2023/01/22 03:29:53;;;;;;;29.00;18.42;;;0.20;99.90;;;;;;5008596;28;20539;-86
2023/01/22 03:32:19;;;;;;;27.98;17.67;;;0.20;99.90;;;;;;5012220;28;20037;-87
2023/01/22 03:34:44;;;;;;;22.98;15.20;;;0.20;99.90;;;;;;5026259;28;20039;-86
2023/01/22 03:37:13;;;;;;;28.10;15.48;;;0.10;99.90;;;;;;4995739;28;20033;-86
2023/01/22 03:39:39;;;;;;;28.27;21.02;;;0.20;99.90;;;;;;5014751;28;20444;-84
2023/01/22 03:42:05;;;;;;;30.63;18.75;;;0.10;99.90;;;;;;4995620;28;20040;-86
2023/01/22 03:44:30;;;;;;;26.83;16.02;;;0.10;99.90;;;;;;4993247;28;20032;-86
2023/01/22 03:46:56;;;;;;;24.50;15.20;;;0.10;99.90;;;;;;5008864;28;20033;-87
2023/01/22 03:49:21;;;;;;;25.65;16.77;;;0.10;99.90;;;;;;4990823;28;20037;-86
2023/01/22 03:51:47;;;;;;;25.73;15.40;;;0.20;99.90;;;;;;5006988;28;20056;-86
2023/01/22 03:54:13;;;;;;;25.38;15.95;;;0.10;99.90;;;;;;5006818;28;20131;-86
2023/01/22 03:56:39;;;;;;;27.63;14.52;;;0.10;99.90;;;;;;5009853;28;20498;-86
2023/01/22 03:59:04;;;;;;;32.22;18.30;;;0.10;99.90;;;;;;5009268;28;20029;-86
2023/01/22 04:01:30;;;;;;;28.38;19.05;;;0.10;99.90;;;;;;4995895;28;20531;-86
2023/01/22 04:03:55;;;;;;;24.70;16.00;;;0.10;99.90;;;;;;4996206;28;20033;-88
2023/01/22 04:06:21;;;;;;;28.27;16.90;;;0.10;99.90;;;;;;4990634;28;20037;-87
2023/01/22 04:08:48;;;;;;;32.67;19.60;;;0.10;99.90;;;;;;5004301;28;20043;-86
2023/01/22 04:11:14;;;;;;;26.58;17.30;;;0.10;99.90;;;;;;5015081;28;20037;-88
2023/01/22 04:13:40;;;;;;;32.35;18.27;;;0.00;99.90;;;;;;5009020;28;20040;-87
2023/01/22 04:16:06;;;;;;;25.15;15.25;;;0.10;99.90;;;;;;4990927;28;20029;-88
2023/01/22 04:18:34;;;;;;;28.55;18.30;;;0.10;99.90;;;;;;4996324;28;20511;-87
2023/01/22 04:21:00;;;;;;;33.10;16.58;;;0.10;99.90;;;;;;4996287;28;20051;-87
2023/01/22 04:23:25;;;;;;;29.90;18.25;;;0.10;99.90;;;;;;5005811;28;20483;-88
2023/01/22 04:25:51;;;;;;;27.58;16.60;;;0.10;99.90;;;;;;5008119;28;20045;-85
2023/01/22 04:28:17;;;;;;;30.17;18.02;;;0.10;99.90;;;;;;5024427;28;20098;-87
2023/01/22 04:30:43;;;;;;;28.00;17.27;;;0.10;99.90;;;;;;4995498;28;20038;-87
2023/01/22 04:33:09;;;;;;;28.17;16.00;;;0.10;99.90;;;;;;5009837;28;20040;-87
2023/01/22 04:35:35;;;;;;;29.05;18.15;;;0.10;99.90;;;;;;5011477;28;20296;-87
2023/01/22 04:38:00;;;;;;;29.40;17.25;;;0.10;99.90;;;;;;4993494;28;20064;-87
2023/01/22 04:40:28;;;;;;;27.63;16.70;;;0.10;99.90;;;;;;5006882;28;20048;-87
2023/01/22 04:42:53;;;;;;;27.95;16.58;;;0.10;99.90;;;;;;5021928;28;20034;-87
2023/01/22 04:45:19;;;;;;;25.52;17.05;;;0.10;99.90;;;;;;5009873;28;20405;-87
2023/01/22 04:47:46;;;;;;;29.48;17.88;;;0.10;99.90;;;;;;5009731;28;20533;-86
2023/01/22 04:50:18;;;;;;;29.67;21.15;;;0.10;99.90;;;;;;5009372;28;20532;-86
2023/01/22 04:52:43;;;;;;;32.10;18.67;;;0.10;99.90;;;;;;5019683;28;20087;-88
2023/01/22 04:55:09;;;;;;;27.73;19.52;;;0.10;99.90;;;;;;5010367;28;20578;-88
2023/01/22 04:57:34;;;;;;;29.40;18.70;;;0.10;99.90;;;;;;4992366;28;20176;-85
2023/01/22 05:00:00;;;;;;;33.97;20.08;;;0.10;99.90;;;;;;5011036;28;20045;-87
2023/01/22 05:02:25;;;;;;;34.47;24.08;;;0.10;99.90;;;;;;5008916;28;20063;-86
2023/01/22 05:04:51;;;;;;;32.38;19.70;;;0.10;99.90;;;;;;4994224;28;20040;-88
2023/01/22 05:07:16;;;;;;;27.60;17.00;;;0.10;99.90;;;;;;4992835;28;20039;-87
2023/01/22 05:09:42;;;;;;;36.25;18.25;;;0.10;99.90;;;;;;4994854;28;20029;-87
2023/01/22 05:12:07;;;;;;;29.13;18.60;;;0.10;99.90;;;;;;5007120;28;20025;-88
2023/01/22 05:14:33;;;;;;;30.70;19.08;;;0.00;99.90;;;;;;4995461;28;20025;-87
2023/01/22 05:16:58;;;;;;;28.42;18.67;;;0.10;99.90;;;;;;4994464;28;20036;-87
2023/01/22 05:19:24;;;;;;;30.38;17.67;;;0.10;99.90;;;;;;5026328;28;20393;-86
2023/01/22 05:21:50;;;;;;;32.55;21.67;;;0.10;99.90;;;;;;5008775;28;20018;-87
2023/01/22 05:24:17;;;;;;;29.33;16.45;;;0.10;99.90;;;;;;5023350;28;20439;-87
2023/01/22 05:26:43;;;;;;;31.70;18.17;;;0.10;99.90;;;;;;5008901;28;20025;-86
2023/01/22 05:29:08;;;;;;;29.40;17.60;;;0.10;99.90;;;;;;5010088;28;20029;-88
2023/01/22 05:31:34;;;;;;;27.58;17.33;;;0.10;99.90;;;;;;4993216;28;20037;-87
2023/01/22 05:33:59;;;;;;;30.80;19.40;;;0.10;99.90;;;;;;5027097;28;20033;-86
2023/01/22 05:36:25;;;;;;;28.75;17.40;;;0.10;99.90;;;;;;5009360;28;20092;-87
2023/01/22 05:38:50;;;;;;;29.42;16.48;;;0.10;99.90;;;;;;5009427;28;20052;-87
2023/01/22 05:41:16;;;;;;;28.80;17.05;;;0.10;99.90;;;;;;5005924;28;20103;-87
2023/01/22 05:43:41;;;;;;;29.13;17.65;;;0.10;99.90;;;;;;4987819;28;20029;-87
2023/01/22 05:46:07;;;;;;;31.75;21.10;;;0.10;99.90;;;;;;5010963;28;20099;-86
2023/01/22 05:48:32;;;;;;;30.20;18.95;;;0.10;99.90;;;;;;5026432;28;20525;-87
2023/01/22 05:51:03;;;;;;;28.48;17.13;;;0.10;99.90;;;;;;5027740;28;20395;-86
2023/01/22 05:53:29;;;;;;;29.20;19.17;;;0.00;99.90;;;;;;4994624;28;20499;-87
2023/01/22 05:55:54;;;;;;;28.65;18.45;;;0.10;99.90;;;;;;4994649;28;20021;-86
2023/01/22 05:58:20;;;;;;;32.80;20.45;;;0.10;99.90;;;;;;5002862;28;20112;-87
2023/01/22 06:00:45;;;;;;;27.63;16.65;;;0.10;99.90;;;;;;5004473;28;20052;-86
2023/01/22 06:03:11;;;;;;;29.45;17.38;;;0.10;99.90;;;;;;5010725;28;20029;-88
2023/01/22 06:05:36;;;;;;;30.33;19.17;;;0.10;99.90;;;;;;4994292;28;20392;-86
2023/01/22 06:08:02;;;;;;;32.67;19.38;;;0.10;99.90;;;;;;5009329;28;20100;-88
2023/01/22 06:10:27;;;;;;;27.42;18.08;;;0.10;99.90;;;;;;4996611;28;20431;-87
2023/01/22 06:12:53;;;;;;;26.25;18.88;;;0.10;99.90;;;;;;5025237;28;20040;-88
2023/01/22 06:15:18;;;;;;;28.50;16.00;;;0.10;99.90;;;;;;5009659;28;20086;-85
2023/01/22 06:17:44;;;;;;;28.73;18.38;;;0.10;99.90;;;;;;4993319;28;20059;-87
2023/01/22 06:20:10;;;;;;;29.58;16.85;;;0.10;99.90;;;;;;5022658;28;20123;-87
2023/01/22 06:22:35;;;;;;;30.55;18.65;;;0.10;99.90;;;;;;5003350;28;20118;-87
2023/01/22 06:25:02;;;;;;;25.27;16.63;;;0.10;99.90;;;;;;4991988;28;20109;-87
2023/01/22 06:27:28;;;;;;;28.40;17.30;;;0.10;99.90;;;;;;5002825;28;20033;-88
2023/01/22 06:29:53;;;;;;;26.25;15.80;;;0.10;99.90;;;;;;5020012;28;20036;-87
2023/01/22 06:32:19;;;;;;;24.48;17.70;;;0.10;99.90;;;;;;5007157;28;20033;-87
2023/01/22 06:34:45;;;;;;;25.80;15.90;;;0.10;99.90;;;;;;5024536;28;20492;-87
2023/01/22 06:37:10;;;;;;;25.95;15.98;;;0.10;99.90;;;;;;5008304;28;20021;-86
2023/01/22 06:39:37;;;;;;;28.40;17.70;;;0.10;99.90;;;;;;4984689;28;20035;-88
2023/01/22 06:42:02;;;;;;;24.48;17.40;;;0.10;99.90;;;;;;5020808;28;20086;-87
2023/01/22 06:44:28;;;;;;;28.95;17.20;;;0.10;99.90;;;;;;5022417;28;20492;-87
2023/01/22 06:46:53;;;;;;;26.45;15.88;;;0.10;99.90;;;;;;4989776;28;20492;-85
2023/01/22 06:49:19;;;;;;;25.63;16.48;;;0.10;99.90;;;;;;5008825;28;20116;-87
2023/01/22 06:51:45;;;;;;;28.70;20.73;;;0.10;99.90;;;;;;5005572;28;20121;-88
2023/01/22 06:54:11;;;;;;;26.80;17.65;;;0.10;99.90;;;;;;5005548;28;20044;-88
2023/01/22 06:56:36;;;;;;;25.92;15.55;;;0.10;99.90;;;;;;5003165;28;20086;-87
2023/01/22 06:59:02;;;;;;;25.20;16.08;;;0.10;99.90;;;;;;5006691;28;20037;-87
2023/01/22 07:01:27;;;;;;;25.70;14.40;;;0.10;99.90;;;;;;5007555;28;20036;-87
2023/01/22 07:03:53;;;;;;;26.27;16.17;;;0.10;99.90;;;;;;5003895;28;20249;-87
2023/01/22 07:06:20;;;;;;;24.08;14.07;;;0.10;99.90;;;;;;5011289;28;20043;-87
2023/01/22 07:08:45;;;;;;;25.75;14.93;;;0.20;99.90;;;;;;4992527;28;20519;-87
2023/01/22 07:11:12;;;;;;;26.50;14.90;;;0.10;99.90;;;;;;5024956;28;20033;-88
2023/01/22 07:13:37;;;;;;;22.25;13.32;;;0.10;99.90;;;;;;5021555;28;20405;-87
2023/01/22 07:16:04;;;;;;;26.55;16.05;;;0.20;99.90;;;;;;5007156;28;20034;-87
2023/01/22 07:18:29;;;;;;;25.75;16.48;;;0.20;99.90;;;;;;4990981;28;20084;-87
2023/01/22 07:21:02;;;;;;;26.08;15.80;;;0.20;99.90;;;;;;5021872;28;20032;-88
2023/01/22 07:23:28;;;;;;;26.25;16.65;;;0.20;99.90;;;;;;5022947;28;20025;-87
2023/01/22 07:25:53;;;;;;;25.40;16.70;;;0.10;99.90;;;;;;4992314;28;20041;-88
2023/01/22 07:28:19;;;;;;;25.92;15.93;;;0.20;99.90;;;;;;5007883;28;20123;-87
2023/01/22 07:30:47;;;;;;;25.58;16.75;;;0.10;99.90;;;;;;5004958;28;20046;-87
2023/01/22 07:33:13;;;;;;;24.98;16.20;;;0.10;99.90;;;;;;5009311;28;20039;-88
2023/01/22 07:35:38;;;;;;;26.35;15.50;;;0.10;99.90;;;;;;5007860;28;20395;-88
2023/01/22 07:38:04;;;;;;;28.13;18.08;;;0.20;99.90;;;;;;5015893;28;20479;-87
2023/01/22 07:40:30;;;;;;;24.20;16.20;;;0.20;99.90;;;;;;5010232;28;20021;-87
2023/01/22 07:42:55;;;;;;;28.48;17.67;;;0.20;99.90;;;;;;5010389;28;20099;-87
2023/01/22 07:45:23;;;;;;;27.55;15.68;;;0.20;99.90;;;;;;4994797;28;20124;-84
2023/01/22 07:47:56;;;;;;;25.23;16.70;;;0.20;99.90;;;;;;5024609;28;20047;-84
2023/01/22 07:50:29;;;;;;;22.27;13.57;;;0.10;99.90;;;;;;5016163;28;20069;-84
2023/01/22 07:52:54;;;;;;;28.33;16.88;;;0.20;99.90;;;;;;4991602;28;20112;-84
2023/01/22 07:55:20;;;;;;;29.35;15.07;;;0.20;99.90;;;;;;4993216;28;20103;-84
2023/01/22 07:57:45;;;;;;;23.95;14.38;;;0.20;99.90;;;;;;5009939;28;20034;-85
2023/01/22 08:00:11;;;;;;;27.70;17.85;;;0.20;99.90;;;;;;5010406;28;20322;-84
2023/01/22 08:02:37;;;;;;;27.50;17.50;;;0.20;99.90;;;;;;4991931;28;20577;-85
2023/01/22 08:05:05;;;;;;;27.95;16.65;;;0.20;99.90;;;;;;5022624;28;20041;-84
2023/01/22 08:07:31;;;;;;;28.40;16.80;;;0.20;99.90;;;;;;5004236;28;20428;-84
2023/01/22 08:09:56;;;;;;;25.67;18.85;;;0.30;99.90;;;;;;4991303;28;20045;-85
2023/01/22 08:12:22;;;;;;;30.80;18.63;;;0.30;99.90;;;;;;5027951;28;20539;-85
2023/01/22 08:14:48;;;;;;;25.10;18.15;;;0.20;99.90;;;;;;4998760;28;20482;-84
2023/01/22 08:17:14;;;;;;;25.55;16.48;;;0.30;99.90;;;;;;5009562;28;20481;-84
2023/01/22 08:19:39;;;;;;;27.10;16.67;;;0.30;99.90;;;;;;5029702;28;20048;-85
2023/01/22 08:22:05;;;;;;;25.13;16.30;;;0.30;99.90;;;;;;4998837;28;20116;-85
2023/01/22 08:24:31;;;;;;;24.98;15.70;;;0.30;99.90;;;;;;4995447;28;20067;-86
2023/01/22 08:26:56;;;;;;;23.25;13.88;;;0.30;99.90;;;;;;5012996;28;20033;-85
2023/01/22 08:29:22;;;;;;;25.85;15.93;;;0.30;99.90;;;;;;4997447;28;20036;-86
2023/01/22 08:31:49;;;;;;;25.15;15.70;;;0.30;99.90;;;;;;5010371;28;20033;-86
2023/01/22 08:34:14;;;;;;;26.67;14.75;;;0.30;99.90;;;;;;5025626;28;20510;-86
2023/01/22 08:36:40;;;;;;;28.20;16.60;;;0.40;99.90;;;;;;5011888;28;20029;-86
2023/01/22 08:39:06;;;;;;;28.65;16.00;;;0.40;99.90;;;;;;5027746;28;20057;-87
2023/01/22 08:41:31;;;;;;;23.48;15.20;;;0.40;99.90;;;;;;4987923;28;20112;-87
2023/01/22 08:43:57;;;;;;;26.52;15.60;;;0.40;99.90;;;;;;5026233;28;20033;-86
2023/01/22 08:46:22;;;;;;;23.40;14.68;;;0.40;99.90;;;;;;5010387;28;20021;-87
2023/01/22 08:48:49;;;;;;;23.13;13.85;;;0.40;99.90;;;;;;5013349;28;20523;-87
2023/01/22 08:51:15;;;;;;;27.02;15.63;;;0.40;99.90;;;;;;5008654;28;20041;-84
2023/01/22 08:53:40;;;;;;;24.33;16.73;;;0.40;99.90;;;;;;5013162;28;20060;-86
2023/01/22 08:56:06;;;;;;;23.98;15.20;;;0.40;99.90;;;;;;4994981;28;20037;-84
2023/01/22 08:58:32;;;;;;;27.45;15.98;;;0.40;99.90;;;;;;5009725;28;20029;-84
2023/01/22 09:00:58;;;;;;;27.35;15.05;;;0.40;99.90;;;;;;5006987;28;20500;-84
2023/01/22 09:03:23;;;;;;;27.88;16.52;;;0.40;99.90;;;;;;4988302;28;20040;-84
2023/01/22 09:05:52;;;;;;;24.92;17.85;;;0.40;99.90;;;;;;4997200;28;20052;-84
2023/01/22 09:08:17;;;;;;;26.10;18.17;;;0.40;99.90;;;;;;4997163;28;20051;-84
2023/01/22 09:10:44;;;;;;;29.10;19.15;;;0.40;99.90;;;;;;5006880;28;20075;-84
2023/01/22 09:13:10;;;;;;;25.13;16.58;;;0.40;99.90;;;;;;4995794;28;20040;-84
2023/01/22 09:15:36;;;;;;;26.25;14.95;;;0.40;99.90;;;;;;4992030;28;20171;-84
2023/01/22 09:18:01;;;;;;;27.02;17.60;;;0.50;99.90;;;;;;5012503;28;20261;-84
2023/01/22 09:20:27;;;;;;;24.35;15.95;;;0.40;99.90;;;;;;4995591;28;20429;-84
2023/01/22 09:22:53;;;;;;;24.52;14.73;;;0.50;99.90;;;;;;5001244;28;20444;-84
2023/01/22 09:25:19;;;;;;;26.55;16.60;;;0.50;99.90;;;;;;4995413;28;20029;-84
2023/01/22 09:27:45;;;;;;;27.67;18.23;;;0.40;99.90;;;;;;5011908;28;20076;-85
2023/01/22 09:30:13;;;;;;;23.10;14.48;;;0.50;99.90;;;;;;5026108;28;20071;-84
2023/01/22 09:32:39;;;;;;;27.65;17.40;;;0.50;99.90;;;;;;5026916;28;20032;-86
2023/01/22 09:35:05;;;;;;;27.75;16.63;;;0.50;99.90;;;;;;4995310;28;20029;-86
2023/01/22 09:37:31;;;;;;;26.85;18.15;;;0.50;99.90;;;;;;5013408;28;20025;-85
2023/01/22 09:39:56;;;;;;;27.88;18.85;;;0.50;99.90;;;;;;5010366;28;20139;-84
2023/01/22 09:42:28;;;;;;;31.40;18.55;;;0.40;99.90;;;;;;4993996;28;20377;-84
2023/01/22 09:44:57;;;;;;;30.02;18.63;;;0.50;99.90;;;;;;5004040;28;20028;-86
2023/01/22 09:47:33;;;;;;;32.30;17.77;;;0.50;99.90;;;;;;4997743;28;20508;-86
2023/01/22 09:50:05;;;;;;;25.30;15.55;;;0.50;99.90;;;;;;5007006;28;20607;-87
2023/01/22 09:52:37;;;;;;;30.92;17.85;;;0.50;99.90;;;;;;4991979;28;20496;-85
2023/01/22 09:55:04;;;;;;;30.67;20.98;;;0.50;99.90;;;;;;5007883;28;20136;-86
2023/01/22 09:57:30;;;;;;;29.05;22.08;;;0.50;99.90;;;;;;5010822;28;20396;-87
2023/01/22 09:59:55;;;;;;;31.85;18.40;;;0.40;99.90;;;;;;5011883;28;20021;-85
2023/01/22 10:02:36;;;;;;;25.95;18.08;;;0.50;99.90;;;;;;4993705;28;20029;-86
2023/01/22 10:05:13;;;;;;;27.58;16.67;;;0.50;99.90;;;;;;5014569;28;20060;-85
2023/01/22 10:07:59;;;;;;;26.88;16.52;;;0.50;99.90;;;;;;4985405;28;20425;-88
2023/01/22 10:10:25;;;;;;;31.23;17.58;;;0.50;99.90;;;;;;4996593;28;20033;-87
2023/01/22 10:13:15;;;;;;;30.73;17.13;;;0.50;99.90;;;;;;4994004;28;20090;-86
2023/01/22 10:15:41;;;;;;;28.10;18.73;;;0.50;99.90;;;;;;5009996;28;20108;-88
2023/01/22 10:18:47;;;;;;;27.92;16.77;;;0.50;99.90;;;;;;5009780;28;20132;-87
2023/01/22 10:21:41;;;;;;;28.27;17.25;;;0.50;99.90;;;;;;4944401;28;20035;-87
2023/01/22 10:24:09;;;;;;;33.38;19.50;;;0.50;99.90;;;;;;4946076;28;20455;-87
2023/01/22 10:26:49;;;;;;;29.92;19.10;;;0.50;99.90;;;;;;4974249;28;20550;-86
2023/01/22 10:29:36;;;;;;;30.17;17.40;;;0.50;99.90;;;;;;5010312;28;20033;-88
2023/01/22 10:32:25;;;;;;;27.15;16.17;;;0.50;99.90;;;;;;5004248;28;20107;-87
2023/01/22 10:35:20;;;;;;;29.17;19.02;;;0.60;99.90;;;;;;4991984;28;20094;-86
2023/01/22 10:37:53;;;;;;;30.95;17.33;;;0.60;99.90;;;;;;4996516;28;20090;-87
2023/01/22 10:40:33;;;;;;;30.40;18.77;;;0.50;99.90;;;;;;4994175;28;20037;-87
2023/01/22 10:43:04;;;;;;;27.83;19.20;;;0.60;99.90;;;;;;4994358;28;20017;-87
2023/01/22 10:45:29;;;;;;;25.48;16.23;;;0.60;99.90;;;;;;4993157;28;20033;-86
2023/01/22 10:48:11;;;;;;;27.63;17.77;;;0.60;99.90;;;;;;5007427;28;20036;-87
2023/01/22 10:50:37;;;;;;;32.30;16.58;;;0.60;99.90;;;;;;5023747;28;20112;-86
2023/01/22 10:53:02;;;;;;;30.95;19.15;;;0.60;99.90;;;;;;5026315;28;20112;-86
2023/01/22 10:55:30;;;;;;;27.40;18.10;;;0.60;99.90;;;;;;4994043;28;20037;-87
2023/01/22 10:58:04;;;;;;;26.65;16.38;;;0.60;99.90;;;;;;5009507;28;20086;-87
2023/01/22 11:00:36;;;;;;;31.05;17.80;;;0.70;99.90;;;;;;5010035;28;20061;-87
2023/01/22 11:03:31;;;;;;;25.83;18.15;;;0.70;99.90;;;;;;4991185;28;20417;-87
2023/01/22 11:06:22;;;;;;;31.73;17.80;;;0.70;99.90;;;;;;4997281;28;20476;-87
2023/01/22 11:08:55;;;;;;;28.65;21.25;;;0.70;99.90;;;;;;5001388;28;20631;-85
2023/01/22 11:11:25;;;;;;;26.58;16.70;;;0.70;99.90;;;;;;5017310;28;20049;-85
2023/01/22 11:13:54;;;;;;;27.00;16.83;;;0.80;99.90;;;;;;4992511;28;20086;-86
2023/01/22 11:16:21;;;;;;;28.75;18.30;;;0.80;99.90;;;;;;4993460;28;20033;-86
2023/01/22 11:19:10;;;;;;;26.98;18.73;;;0.80;99.90;;;;;;5005993;28;20056;-85
2023/01/22 11:21:49;;;;;;;30.08;17.45;;;0.90;99.90;;;;;;5003395;28;20395;-86
2023/01/22 11:24:23;;;;;;;32.00;17.17;;;0.90;99.90;;;;;;5010577;28;20400;-87
2023/01/22 11:26:49;;;;;;;31.40;18.02;;;0.90;99.90;;;;;;5009219;28;20064;-86
2023/01/22 11:29:36;;;;;;;28.58;17.27;;;0.90;99.90;;;;;;5021777;28;20025;-86
2023/01/22 11:32:25;;;;;;;29.30;17.13;;;1.00;99.90;;;;;;5015957;28;20038;-86
2023/01/22 11:35:15;;;;;;;27.27;16.25;;;1.00;99.90;;;;;;5009886;28;20071;-86
2023/01/22 11:37:41;;;;;;;21.67;12.23;;;1.10;99.90;;;;;;5023116;28;20029;-86
2023/01/22 11:40:27;;;;;;;33.42;20.60;;;1.10;99.90;;;;;;5022693;28;20044;-86
2023/01/22 11:43:26;;;;;;;27.80;16.85;;;1.20;99.90;;;;;;4983059;28;20047;-87
2023/01/22 11:46:19;;;;;;;30.30;16.15;;;1.20;99.90;;;;;;5025498;28;20029;-86
2023/01/22 11:49:06;;;;;;;28.85;16.60;;;1.20;99.90;;;;;;5023154;28;20032;-86
2023/01/22 11:52:06;;;;;;;29.73;17.70;;;1.20;99.90;;;;;;5008618;28;20527;-86
2023/01/22 11:54:52;;;;;;;34.10;21.75;;;1.30;99.90;;;;;;4994523;28;20026;-86
2023/01/22 11:57:35;;;;;;;31.88;21.95;;;1.30;99.90;;;;;;5011170;28;20524;-84
2023/01/22 12:00:20;;;;;;;30.25;17.42;;;1.30;99.90;;;;;;4995724;28;20094;-86
2023/01/22 12:03:12;;;;;;;31.15;19.52;;;1.30;99.90;;;;;;5040616;28;20488;-86
2023/01/22 12:06:05;;;;;;;31.13;18.23;;;1.30;99.90;;;;;;5026443;28;20078;-86
2023/01/22 12:08:56;;;;;;;31.10;19.80;;;1.30;99.90;;;;;;5024201;28;20173;-86
2023/01/22 12:11:28;;;;;;;30.90;18.35;;;1.40;99.90;;;;;;4992984;28;20064;-86
2023/01/22 12:14:10;;;;;;;29.30;18.45;;;1.40;99.90;;;;;;5023375;28;20060;-85
2023/01/22 12:16:41;;;;;;;29.80;17.40;;;1.40;99.90;;;;;;5020628;28;20400;-85
2023/01/22 12:19:11;;;;;;;30.73;17.23;;;1.40;99.90;;;;;;5028897;28;20116;-86
2023/01/22 12:22:02;;;;;;;29.33;19.92;;;1.50;99.90;;;;;;5007775;28;20546;-86
2023/01/22 12:24:58;;;;;;;26.40;16.08;;;1.50;99.90;;;;;;4999718;28;20036;-86
2023/01/22 12:27:31;;;;;;;27.23;16.40;;;1.50;99.90;;;;;;4997490;28;20053;-85
2023/01/22 12:30:12;;;;;;;30.67;17.70;;;1.60;99.90;;;;;;5010630;28;20646;-85
2023/01/22 12:32:38;;;;;;;30.92;18.70;;;1.60;99.90;;;;;;5017824;28;20404;-85
2023/01/22 12:35:16;;;;;;;31.42;18.92;;;1.60;99.90;;;;;;5013223;28;20037;-85
2023/01/22 12:37:51;;;;;;;28.20;17.70;;;1.60;99.90;;;;;;4995590;28;20034;-84
2023/01/22 12:40:25;;;;;;;29.80;20.45;;;1.60;99.90;;;;;;5004408;28;20029;-85
2023/01/22 12:43:06;;;;;;;31.83;17.50;;;1.60;99.90;;;;;;5012887;28;20032;-84
2023/01/22 12:45:32;;;;;;;28.85;16.25;;;1.60;99.90;;;;;;4658977;28;10000210;-85
2023/01/22 12:48:13;;;;;;;32.22;17.20;;;1.70;99.90;;;;;;5027976;28;20033;-85
2023/01/22 12:50:47;;;;;;;28.10;16.77;;;1.70;99.90;;;;;;4992599;28;20033;-85
2023/01/22 12:53:26;;;;;;;29.30;17.52;;;1.70;99.90;;;;;;5005797;28;20068;-84